sensor_id;sensor_type;location;lat;lon;timestamp;P1;durP1;ratioP1;P2;durP2;ratioP2
1885;SDS011;943;51.568;6.998;2023-04-06T00:00:00;17.00;;;10.73;;
1885;SDS011;943;51.568;6.998;2023-04-06T00:02:35;16.03;;;10.90;;
1885;SDS011;943;51.568;6.998;2023-04-06T00:05:05;15.20;;;10.80;;
1885;SDS011;943;51.568;6.998;2023-04-06T00:07:34;17.27;;;11.07;;
1885;SDS011;943;51.568;6.998;2023-04-06T00:10:04;15.70;;;11.13;;
1885;SDS011;943;51.568;6.998;2023-04-06T00:12:33;16.47;;;9.70;;
1885;SDS011;943;51.568;6.998;2023-04-06T00:15:01;18.03;;;10.40;;
1885;SDS011;943;51.568;6.998;2023-04-06T00:17:32;13.57;;;9.63;;
1885;SDS011;943;51.568;6.998;2023-04-06T00:20:00;15.43;;;10.57;;
1885;SDS011;943;51.568;6.998;2023-04-06T00:22:27;14.07;;;9.83;;
1885;SDS011;943;51.568;6.998;2023-04-06T00:24:55;19.13;;;11.87;;
1885;SDS011;943;51.568;6.998;2023-04-06T00:27:23;15.83;;;10.90;;
1885;SDS011;943;51.568;6.998;2023-04-06T00:29:51;15.90;;;10.60;;
1885;SDS011;943;51.568;6.998;2023-04-06T00:32:19;15.20;;;10.60;;
1885;SDS011;943;51.568;6.998;2023-04-06T00:34:47;16.10;;;11.10;;
1885;SDS011;943;51.568;6.998;2023-04-06T00:37:16;12.60;;;9.53;;
1885;SDS011;943;51.568;6.998;2023-04-06T00:39:44;14.07;;;10.43;;
1885;SDS011;943;51.568;6.998;2023-04-06T00:42:12;13.83;;;10.63;;
1885;SDS011;943;51.568;6.998;2023-04-06T00:44:41;15.23;;;10.43;;
1885;SDS011;943;51.568;6.998;2023-04-06T00:47:09;14.87;;;10.40;;
1885;SDS011;943;51.568;6.998;2023-04-06T00:49:37;15.70;;;10.40;;
1885;SDS011;943;51.568;6.998;2023-04-06T00:52:05;16.67;;;11.20;;
1885;SDS011;943;51.568;6.998;2023-04-06T00:54:33;15.87;;;10.40;;
1885;SDS011;943;51.568;6.998;2023-04-06T00:57:02;15.87;;;10.50;;
1885;SDS011;943;51.568;6.998;2023-04-06T00:59:31;16.10;;;10.80;;
1885;SDS011;943;51.568;6.998;2023-04-06T01:02:01;17.67;;;10.90;;
1885;SDS011;943;51.568;6.998;2023-04-06T01:04:38;16.97;;;10.90;;
1885;SDS011;943;51.568;6.998;2023-04-06T01:07:13;15.40;;;11.17;;
1885;SDS011;943;51.568;6.998;2023-04-06T01:09:52;17.67;;;12.13;;
1885;SDS011;943;51.568;6.998;2023-04-06T01:12:25;17.30;;;11.37;;
1885;SDS011;943;51.568;6.998;2023-04-06T01:14:54;17.27;;;11.90;;
1885;SDS011;943;51.568;6.998;2023-04-06T01:17:24;15.37;;;9.90;;
1885;SDS011;943;51.568;6.998;2023-04-06T01:19:52;17.90;;;12.37;;
1885;SDS011;943;51.568;6.998;2023-04-06T01:22:26;23.90;;;12.07;;
1885;SDS011;943;51.568;6.998;2023-04-06T01:24:57;20.17;;;11.60;;
1885;SDS011;943;51.568;6.998;2023-04-06T01:27:33;19.13;;;12.10;;
1885;SDS011;943;51.568;6.998;2023-04-06T01:30:10;19.70;;;12.73;;
1885;SDS011;943;51.568;6.998;2023-04-06T01:32:49;24.13;;;12.23;;
1885;SDS011;943;51.568;6.998;2023-04-06T01:35:41;23.50;;;12.83;;
1885;SDS011;943;51.568;6.998;2023-04-06T01:38:13;20.40;;;13.10;;
1885;SDS011;943;51.568;6.998;2023-04-06T01:40:42;19.00;;;12.93;;
1885;SDS011;943;51.568;6.998;2023-04-06T01:43:10;18.90;;;11.73;;
1885;SDS011;943;51.568;6.998;2023-04-06T01:45:54;19.07;;;12.80;;
1885;SDS011;943;51.568;6.998;2023-04-06T01:48:27;21.73;;;13.37;;
1885;SDS011;943;51.568;6.998;2023-04-06T01:50:56;18.50;;;12.37;;
1885;SDS011;943;51.568;6.998;2023-04-06T01:53:29;21.30;;;12.80;;
1885;SDS011;943;51.568;6.998;2023-04-06T01:56:02;22.00;;;12.90;;
1885;SDS011;943;51.568;6.998;2023-04-06T01:58:36;20.90;;;12.97;;
1885;SDS011;943;51.568;6.998;2023-04-06T02:01:05;19.87;;;13.23;;
1885;SDS011;943;51.568;6.998;2023-04-06T02:03:46;18.80;;;12.93;;
1885;SDS011;943;51.568;6.998;2023-04-06T02:06:14;17.03;;;12.30;;
1885;SDS011;943;51.568;6.998;2023-04-06T02:08:42;21.47;;;13.17;;
1885;SDS011;943;51.568;6.998;2023-04-06T02:11:10;18.37;;;13.77;;
1885;SDS011;943;51.568;6.998;2023-04-06T02:13:48;17.90;;;14.17;;
1885;SDS011;943;51.568;6.998;2023-04-06T02:16:16;23.33;;;13.93;;
1885;SDS011;943;51.568;6.998;2023-04-06T02:18:45;24.90;;;14.07;;
1885;SDS011;943;51.568;6.998;2023-04-06T02:21:13;20.30;;;13.53;;
1885;SDS011;943;51.568;6.998;2023-04-06T02:23:44;21.10;;;12.90;;
1885;SDS011;943;51.568;6.998;2023-04-06T02:26:14;20.50;;;13.37;;
1885;SDS011;943;51.568;6.998;2023-04-06T02:28:42;27.13;;;15.67;;
1885;SDS011;943;51.568;6.998;2023-04-06T02:31:09;20.80;;;13.60;;
1885;SDS011;943;51.568;6.998;2023-04-06T02:33:38;21.20;;;13.50;;
1885;SDS011;943;51.568;6.998;2023-04-06T02:36:06;21.70;;;14.73;;
1885;SDS011;943;51.568;6.998;2023-04-06T02:38:34;18.37;;;13.23;;
1885;SDS011;943;51.568;6.998;2023-04-06T02:41:02;22.20;;;14.43;;
1885;SDS011;943;51.568;6.998;2023-04-06T02:43:30;20.73;;;14.80;;
1885;SDS011;943;51.568;6.998;2023-04-06T02:46:31;20.53;;;14.30;;
1885;SDS011;943;51.568;6.998;2023-04-06T02:48:59;22.90;;;15.53;;
1885;SDS011;943;51.568;6.998;2023-04-06T02:51:30;20.40;;;14.90;;
1885;SDS011;943;51.568;6.998;2023-04-06T02:54:12;22.13;;;14.87;;
1885;SDS011;943;51.568;6.998;2023-04-06T02:56:40;20.60;;;14.30;;
1885;SDS011;943;51.568;6.998;2023-04-06T02:59:08;26.70;;;14.33;;
1885;SDS011;943;51.568;6.998;2023-04-06T03:01:37;20.10;;;14.30;;
1885;SDS011;943;51.568;6.998;2023-04-06T03:04:05;22.83;;;13.60;;
1885;SDS011;943;51.568;6.998;2023-04-06T03:06:33;24.40;;;14.53;;
1885;SDS011;943;51.568;6.998;2023-04-06T03:09:11;23.63;;;14.93;;
1885;SDS011;943;51.568;6.998;2023-04-06T03:11:42;19.17;;;14.83;;
1885;SDS011;943;51.568;6.998;2023-04-06T03:14:10;20.93;;;13.87;;
1885;SDS011;943;51.568;6.998;2023-04-06T03:16:38;20.30;;;14.50;;
1885;SDS011;943;51.568;6.998;2023-04-06T03:19:07;23.90;;;14.90;;
1885;SDS011;943;51.568;6.998;2023-04-06T03:21:35;20.50;;;13.97;;
1885;SDS011;943;51.568;6.998;2023-04-06T03:24:04;24.40;;;15.93;;
1885;SDS011;943;51.568;6.998;2023-04-06T03:26:33;20.67;;;14.60;;
1885;SDS011;943;51.568;6.998;2023-04-06T03:29:05;27.30;;;15.20;;
1885;SDS011;943;51.568;6.998;2023-04-06T03:31:34;23.90;;;14.50;;
1885;SDS011;943;51.568;6.998;2023-04-06T03:34:12;21.80;;;15.37;;
1885;SDS011;943;51.568;6.998;2023-04-06T03:36:41;18.17;;;13.83;;
1885;SDS011;943;51.568;6.998;2023-04-06T03:39:09;25.70;;;14.63;;
1885;SDS011;943;51.568;6.998;2023-04-06T03:41:39;23.43;;;15.93;;
1885;SDS011;943;51.568;6.998;2023-04-06T03:44:26;21.37;;;14.33;;
1885;SDS011;943;51.568;6.998;2023-04-06T03:46:54;26.20;;;16.30;;
1885;SDS011;943;51.568;6.998;2023-04-06T03:49:23;21.70;;;15.17;;
1885;SDS011;943;51.568;6.998;2023-04-06T03:51:52;22.17;;;14.20;;
1885;SDS011;943;51.568;6.998;2023-04-06T03:54:22;24.90;;;16.43;;
1885;SDS011;943;51.568;6.998;2023-04-06T03:56:50;24.80;;;15.80;;
1885;SDS011;943;51.568;6.998;2023-04-06T03:59:18;23.53;;;15.60;;
1885;SDS011;943;51.568;6.998;2023-04-06T04:01:46;24.83;;;16.10;;
1885;SDS011;943;51.568;6.998;2023-04-06T04:04:14;21.57;;;15.63;;
1885;SDS011;943;51.568;6.998;2023-04-06T04:06:42;22.50;;;15.63;;
1885;SDS011;943;51.568;6.998;2023-04-06T04:09:10;27.10;;;16.53;;
1885;SDS011;943;51.568;6.998;2023-04-06T04:11:39;24.43;;;15.07;;
1885;SDS011;943;51.568;6.998;2023-04-06T04:14:07;23.90;;;15.13;;
1885;SDS011;943;51.568;6.998;2023-04-06T04:16:35;25.70;;;16.30;;
1885;SDS011;943;51.568;6.998;2023-04-06T04:19:03;27.50;;;15.10;;
1885;SDS011;943;51.568;6.998;2023-04-06T04:21:31;24.33;;;15.20;;
1885;SDS011;943;51.568;6.998;2023-04-06T04:24:05;22.00;;;15.33;;
1885;SDS011;943;51.568;6.998;2023-04-06T04:26:35;26.03;;;15.40;;
1885;SDS011;943;51.568;6.998;2023-04-06T04:29:05;30.60;;;16.83;;
1885;SDS011;943;51.568;6.998;2023-04-06T04:31:36;28.57;;;15.47;;
1885;SDS011;943;51.568;6.998;2023-04-06T04:34:10;23.10;;;15.87;;
1885;SDS011;943;51.568;6.998;2023-04-06T04:36:38;25.30;;;16.00;;
1885;SDS011;943;51.568;6.998;2023-04-06T04:39:12;26.57;;;15.77;;
1885;SDS011;943;51.568;6.998;2023-04-06T04:41:44;25.40;;;15.93;;
1885;SDS011;943;51.568;6.998;2023-04-06T04:44:12;25.03;;;15.93;;
1885;SDS011;943;51.568;6.998;2023-04-06T04:46:41;30.43;;;16.30;;
1885;SDS011;943;51.568;6.998;2023-04-06T04:49:11;21.10;;;15.20;;
1885;SDS011;943;51.568;6.998;2023-04-06T04:51:40;26.07;;;16.73;;
1885;SDS011;943;51.568;6.998;2023-04-06T04:54:11;21.20;;;15.17;;
1885;SDS011;943;51.568;6.998;2023-04-06T04:56:41;25.90;;;14.80;;
1885;SDS011;943;51.568;6.998;2023-04-06T04:59:21;26.97;;;16.47;;
1885;SDS011;943;51.568;6.998;2023-04-06T05:02:01;22.47;;;15.70;;
1885;SDS011;943;51.568;6.998;2023-04-06T05:04:38;19.43;;;14.70;;
1885;SDS011;943;51.568;6.998;2023-04-06T05:07:11;27.63;;;16.43;;
1885;SDS011;943;51.568;6.998;2023-04-06T05:09:40;30.67;;;16.00;;
1885;SDS011;943;51.568;6.998;2023-04-06T05:12:09;22.33;;;15.60;;
1885;SDS011;943;51.568;6.998;2023-04-06T05:14:47;21.90;;;14.77;;
1885;SDS011;943;51.568;6.998;2023-04-06T05:17:17;22.20;;;16.60;;
1885;SDS011;943;51.568;6.998;2023-04-06T05:19:46;24.53;;;15.70;;
1885;SDS011;943;51.568;6.998;2023-04-06T05:22:20;23.53;;;15.10;;
1885;SDS011;943;51.568;6.998;2023-04-06T05:24:57;24.53;;;15.30;;
1885;SDS011;943;51.568;6.998;2023-04-06T05:27:24;23.53;;;14.80;;
1885;SDS011;943;51.568;6.998;2023-04-06T05:29:53;21.70;;;14.23;;
1885;SDS011;943;51.568;6.998;2023-04-06T05:32:25;25.63;;;14.10;;
1885;SDS011;943;51.568;6.998;2023-04-06T05:34:55;18.53;;;14.47;;
1885;SDS011;943;51.568;6.998;2023-04-06T05:37:23;27.33;;;16.27;;
1885;SDS011;943;51.568;6.998;2023-04-06T05:39:51;24.13;;;15.80;;
1885;SDS011;943;51.568;6.998;2023-04-06T05:42:21;20.27;;;14.90;;
1885;SDS011;943;51.568;6.998;2023-04-06T05:44:55;23.40;;;15.07;;
1885;SDS011;943;51.568;6.998;2023-04-06T05:47:23;26.50;;;15.30;;
1885;SDS011;943;51.568;6.998;2023-04-06T05:50:00;25.57;;;15.47;;
1885;SDS011;943;51.568;6.998;2023-04-06T05:52:32;26.63;;;15.40;;
1885;SDS011;943;51.568;6.998;2023-04-06T05:55:00;23.67;;;16.53;;
1885;SDS011;943;51.568;6.998;2023-04-06T05:57:31;22.80;;;15.27;;
1885;SDS011;943;51.568;6.998;2023-04-06T05:59:59;19.83;;;14.47;;
1885;SDS011;943;51.568;6.998;2023-04-06T06:02:37;18.50;;;14.03;;
1885;SDS011;943;51.568;6.998;2023-04-06T06:05:10;22.20;;;15.70;;
1885;SDS011;943;51.568;6.998;2023-04-06T06:07:40;22.43;;;15.77;;
1885;SDS011;943;51.568;6.998;2023-04-06T06:10:09;22.10;;;14.50;;
1885;SDS011;943;51.568;6.998;2023-04-06T06:12:38;20.47;;;14.27;;
1885;SDS011;943;51.568;6.998;2023-04-06T06:15:06;23.80;;;14.40;;
1885;SDS011;943;51.568;6.998;2023-04-06T06:17:40;20.30;;;13.50;;
1885;SDS011;943;51.568;6.998;2023-04-06T06:20:09;17.97;;;13.00;;
1885;SDS011;943;51.568;6.998;2023-04-06T06:22:39;23.30;;;12.87;;
1885;SDS011;943;51.568;6.998;2023-04-06T06:25:11;22.90;;;12.67;;
1885;SDS011;943;51.568;6.998;2023-04-06T06:27:39;20.30;;;12.73;;
1885;SDS011;943;51.568;6.998;2023-04-06T06:30:08;17.60;;;11.70;;
1885;SDS011;943;51.568;6.998;2023-04-06T06:32:40;15.97;;;11.67;;
1885;SDS011;943;51.568;6.998;2023-04-06T06:35:08;15.00;;;11.77;;
1885;SDS011;943;51.568;6.998;2023-04-06T06:37:37;17.00;;;12.00;;
1885;SDS011;943;51.568;6.998;2023-04-06T06:40:07;16.90;;;11.73;;
1885;SDS011;943;51.568;6.998;2023-04-06T06:42:41;18.80;;;12.10;;
1885;SDS011;943;51.568;6.998;2023-04-06T06:45:47;17.37;;;9.83;;
1885;SDS011;943;51.568;6.998;2023-04-06T06:48:15;13.63;;;10.00;;
1885;SDS011;943;51.568;6.998;2023-04-06T06:50:43;14.70;;;11.03;;
1885;SDS011;943;51.568;6.998;2023-04-06T06:53:11;15.27;;;10.17;;
1885;SDS011;943;51.568;6.998;2023-04-06T06:55:42;16.20;;;11.00;;
1885;SDS011;943;51.568;6.998;2023-04-06T06:58:14;11.90;;;9.50;;
1885;SDS011;943;51.568;6.998;2023-04-06T07:00:47;11.50;;;10.20;;
1885;SDS011;943;51.568;6.998;2023-04-06T07:03:20;17.93;;;11.20;;
1885;SDS011;943;51.568;6.998;2023-04-06T07:05:48;16.20;;;10.57;;
1885;SDS011;943;51.568;6.998;2023-04-06T07:08:21;18.40;;;12.30;;
1885;SDS011;943;51.568;6.998;2023-04-06T07:10:54;15.60;;;10.70;;
1885;SDS011;943;51.568;6.998;2023-04-06T07:13:24;14.20;;;10.80;;
1885;SDS011;943;51.568;6.998;2023-04-06T07:15:57;16.40;;;11.27;;
1885;SDS011;943;51.568;6.998;2023-04-06T07:18:25;13.17;;;11.30;;
1885;SDS011;943;51.568;6.998;2023-04-06T07:20:53;16.90;;;12.23;;
1885;SDS011;943;51.568;6.998;2023-04-06T07:23:21;15.53;;;11.57;;
1885;SDS011;943;51.568;6.998;2023-04-06T07:25:53;19.93;;;10.90;;
1885;SDS011;943;51.568;6.998;2023-04-06T07:28:21;15.33;;;12.10;;
1885;SDS011;943;51.568;6.998;2023-04-06T07:30:49;13.20;;;10.20;;
1885;SDS011;943;51.568;6.998;2023-04-06T07:33:18;12.73;;;10.03;;
1885;SDS011;943;51.568;6.998;2023-04-06T07:35:46;15.53;;;10.93;;
1885;SDS011;943;51.568;6.998;2023-04-06T07:38:15;13.77;;;9.67;;
1885;SDS011;943;51.568;6.998;2023-04-06T07:40:42;13.70;;;9.83;;
1885;SDS011;943;51.568;6.998;2023-04-06T07:43:10;14.37;;;10.77;;
1885;SDS011;943;51.568;6.998;2023-04-06T07:45:38;11.33;;;9.50;;
1885;SDS011;943;51.568;6.998;2023-04-06T07:48:06;12.17;;;10.63;;
1885;SDS011;943;51.568;6.998;2023-04-06T07:50:34;10.83;;;8.40;;
1885;SDS011;943;51.568;6.998;2023-04-06T07:53:03;12.63;;;8.67;;
1885;SDS011;943;51.568;6.998;2023-04-06T07:55:37;12.20;;;9.40;;
1885;SDS011;943;51.568;6.998;2023-04-06T07:58:05;15.63;;;10.70;;
1885;SDS011;943;51.568;6.998;2023-04-06T08:00:39;10.80;;;9.13;;
1885;SDS011;943;51.568;6.998;2023-04-06T08:03:10;15.57;;;10.20;;
1885;SDS011;943;51.568;6.998;2023-04-06T08:05:38;17.03;;;10.50;;
1885;SDS011;943;51.568;6.998;2023-04-06T08:08:06;12.90;;;9.70;;
1885;SDS011;943;51.568;6.998;2023-04-06T08:10:34;14.70;;;10.77;;
1885;SDS011;943;51.568;6.998;2023-04-06T08:13:01;15.07;;;10.27;;
1885;SDS011;943;51.568;6.998;2023-04-06T08:15:29;15.00;;;10.60;;
1885;SDS011;943;51.568;6.998;2023-04-06T08:17:58;17.00;;;10.40;;
1885;SDS011;943;51.568;6.998;2023-04-06T08:20:26;18.67;;;9.23;;
1885;SDS011;943;51.568;6.998;2023-04-06T08:22:54;13.57;;;10.57;;
1885;SDS011;943;51.568;6.998;2023-04-06T08:25:22;14.93;;;10.87;;
1885;SDS011;943;51.568;6.998;2023-04-06T08:27:51;15.53;;;10.33;;
1885;SDS011;943;51.568;6.998;2023-04-06T08:30:19;16.10;;;10.70;;
1885;SDS011;943;51.568;6.998;2023-04-06T08:32:47;13.43;;;10.97;;
1885;SDS011;943;51.568;6.998;2023-04-06T08:35:16;11.97;;;9.43;;
1885;SDS011;943;51.568;6.998;2023-04-06T08:37:44;13.80;;;10.60;;
1885;SDS011;943;51.568;6.998;2023-04-06T08:40:13;15.63;;;11.00;;
1885;SDS011;943;51.568;6.998;2023-04-06T08:42:44;17.87;;;10.50;;
1885;SDS011;943;51.568;6.998;2023-04-06T08:45:28;15.43;;;10.20;;
1885;SDS011;943;51.568;6.998;2023-04-06T08:47:56;16.63;;;10.97;;
1885;SDS011;943;51.568;6.998;2023-04-06T08:50:32;14.63;;;11.27;;
1885;SDS011;943;51.568;6.998;2023-04-06T08:53:01;18.00;;;10.70;;
1885;SDS011;943;51.568;6.998;2023-04-06T08:55:29;16.30;;;11.43;;
1885;SDS011;943;51.568;6.998;2023-04-06T08:57:59;16.60;;;10.47;;
1885;SDS011;943;51.568;6.998;2023-04-06T09:00:28;14.57;;;9.97;;
1885;SDS011;943;51.568;6.998;2023-04-06T09:02:58;14.10;;;10.77;;
1885;SDS011;943;51.568;6.998;2023-04-06T09:05:27;23.73;;;14.87;;
1885;SDS011;943;51.568;6.998;2023-04-06T09:07:55;20.57;;;9.90;;
1885;SDS011;943;51.568;6.998;2023-04-06T09:10:24;16.27;;;11.20;;
1885;SDS011;943;51.568;6.998;2023-04-06T09:13:02;16.87;;;12.50;;
1885;SDS011;943;51.568;6.998;2023-04-06T09:15:34;15.60;;;10.80;;
1885;SDS011;943;51.568;6.998;2023-04-06T09:18:05;15.17;;;11.33;;
1885;SDS011;943;51.568;6.998;2023-04-06T09:20:34;17.60;;;12.03;;
1885;SDS011;943;51.568;6.998;2023-04-06T09:23:02;19.40;;;11.27;;
1885;SDS011;943;51.568;6.998;2023-04-06T09:25:30;15.00;;;12.00;;
1885;SDS011;943;51.568;6.998;2023-04-06T09:28:04;13.50;;;11.53;;
1885;SDS011;943;51.568;6.998;2023-04-06T09:30:49;18.50;;;13.40;;
1885;SDS011;943;51.568;6.998;2023-04-06T09:33:31;14.40;;;10.87;;
1885;SDS011;943;51.568;6.998;2023-04-06T09:35:59;16.13;;;11.10;;
1885;SDS011;943;51.568;6.998;2023-04-06T09:38:27;15.73;;;12.57;;
1885;SDS011;943;51.568;6.998;2023-04-06T09:40:56;21.13;;;14.10;;
1885;SDS011;943;51.568;6.998;2023-04-06T09:43:27;19.80;;;14.30;;
1885;SDS011;943;51.568;6.998;2023-04-06T09:45:56;19.30;;;13.00;;
1885;SDS011;943;51.568;6.998;2023-04-06T09:48:26;18.00;;;13.40;;
1885;SDS011;943;51.568;6.998;2023-04-06T09:51:03;16.87;;;12.07;;
1885;SDS011;943;51.568;6.998;2023-04-06T09:53:35;16.23;;;13.57;;
1885;SDS011;943;51.568;6.998;2023-04-06T09:56:12;18.23;;;13.97;;
1885;SDS011;943;51.568;6.998;2023-04-06T09:58:56;25.40;;;14.20;;
1885;SDS011;943;51.568;6.998;2023-04-06T10:01:39;22.10;;;12.00;;
1885;SDS011;943;51.568;6.998;2023-04-06T10:04:12;20.97;;;12.97;;
1885;SDS011;943;51.568;6.998;2023-04-06T10:07:01;19.37;;;12.80;;
1885;SDS011;943;51.568;6.998;2023-04-06T10:09:33;17.50;;;12.10;;
1885;SDS011;943;51.568;6.998;2023-04-06T10:12:05;18.10;;;12.77;;
1885;SDS011;943;51.568;6.998;2023-04-06T10:14:34;23.97;;;12.87;;
1885;SDS011;943;51.568;6.998;2023-04-06T10:17:04;17.27;;;12.87;;
1885;SDS011;943;51.568;6.998;2023-04-06T10:19:34;15.50;;;11.30;;
1885;SDS011;943;51.568;6.998;2023-04-06T10:22:40;23.43;;;13.63;;
1885;SDS011;943;51.568;6.998;2023-04-06T10:25:30;18.67;;;12.73;;
1885;SDS011;943;51.568;6.998;2023-04-06T10:28:06;18.77;;;12.17;;
1885;SDS011;943;51.568;6.998;2023-04-06T10:30:44;20.90;;;12.63;;
1885;SDS011;943;51.568;6.998;2023-04-06T10:33:15;17.70;;;12.67;;
1885;SDS011;943;51.568;6.998;2023-04-06T10:35:47;20.73;;;13.30;;
1885;SDS011;943;51.568;6.998;2023-04-06T10:38:15;17.70;;;13.53;;
1885;SDS011;943;51.568;6.998;2023-04-06T10:40:48;20.10;;;13.53;;
1885;SDS011;943;51.568;6.998;2023-04-06T10:43:20;21.63;;;13.07;;
1885;SDS011;943;51.568;6.998;2023-04-06T10:45:56;19.20;;;13.07;;
1885;SDS011;943;51.568;6.998;2023-04-06T10:48:38;17.17;;;12.77;;
1885;SDS011;943;51.568;6.998;2023-04-06T10:51:14;19.37;;;13.47;;
1885;SDS011;943;51.568;6.998;2023-04-06T10:53:45;18.33;;;14.23;;
1885;SDS011;943;51.568;6.998;2023-04-06T10:56:16;22.33;;;12.90;;
1885;SDS011;943;51.568;6.998;2023-04-06T10:58:54;19.90;;;14.53;;
1885;SDS011;943;51.568;6.998;2023-04-06T11:01:23;21.23;;;15.43;;
1885;SDS011;943;51.568;6.998;2023-04-06T11:03:55;19.90;;;14.47;;
1885;SDS011;943;51.568;6.998;2023-04-06T11:06:29;19.63;;;13.83;;
1885;SDS011;943;51.568;6.998;2023-04-06T11:08:58;24.83;;;14.50;;
1885;SDS011;943;51.568;6.998;2023-04-06T11:11:27;21.63;;;13.83;;
1885;SDS011;943;51.568;6.998;2023-04-06T11:13:56;20.73;;;13.83;;
1885;SDS011;943;51.568;6.998;2023-04-06T11:16:28;22.93;;;14.00;;
1885;SDS011;943;51.568;6.998;2023-04-06T11:19:00;19.40;;;14.50;;
1885;SDS011;943;51.568;6.998;2023-04-06T11:24:21;21.57;;;15.47;;
1885;SDS011;943;51.568;6.998;2023-04-06T11:26:54;21.83;;;14.13;;
1885;SDS011;943;51.568;6.998;2023-04-06T11:29:28;23.03;;;15.87;;
1885;SDS011;943;51.568;6.998;2023-04-06T11:32:02;26.03;;;14.87;;
1885;SDS011;943;51.568;6.998;2023-04-06T11:34:34;19.87;;;13.60;;
1885;SDS011;943;51.568;6.998;2023-04-06T11:37:08;20.43;;;13.83;;
1885;SDS011;943;51.568;6.998;2023-04-06T11:39:39;17.80;;;12.50;;
1885;SDS011;943;51.568;6.998;2023-04-06T11:42:26;21.27;;;14.73;;
1885;SDS011;943;51.568;6.998;2023-04-06T11:44:57;17.83;;;13.27;;
1885;SDS011;943;51.568;6.998;2023-04-06T11:47:27;18.60;;;11.30;;
1885;SDS011;943;51.568;6.998;2023-04-06T11:50:10;17.00;;;12.27;;
1885;SDS011;943;51.568;6.998;2023-04-06T11:52:41;19.23;;;11.90;;
1885;SDS011;943;51.568;6.998;2023-04-06T11:55:11;22.73;;;13.57;;
1885;SDS011;943;51.568;6.998;2023-04-06T11:57:45;18.07;;;11.93;;
1885;SDS011;943;51.568;6.998;2023-04-06T12:00:13;16.37;;;11.30;;
1885;SDS011;943;51.568;6.998;2023-04-06T12:02:45;21.03;;;12.67;;
1885;SDS011;943;51.568;6.998;2023-04-06T12:05:15;18.63;;;12.33;;
1885;SDS011;943;51.568;6.998;2023-04-06T12:07:44;24.43;;;12.67;;
1885;SDS011;943;51.568;6.998;2023-04-06T12:10:12;22.00;;;13.87;;
1885;SDS011;943;51.568;6.998;2023-04-06T12:12:40;17.07;;;10.67;;
1885;SDS011;943;51.568;6.998;2023-04-06T12:15:08;23.07;;;12.73;;
1885;SDS011;943;51.568;6.998;2023-04-06T12:17:37;25.53;;;13.70;;
1885;SDS011;943;51.568;6.998;2023-04-06T12:20:05;19.07;;;12.50;;
1885;SDS011;943;51.568;6.998;2023-04-06T12:22:50;25.33;;;14.23;;
1885;SDS011;943;51.568;6.998;2023-04-06T12:25:18;19.73;;;12.27;;
1885;SDS011;943;51.568;6.998;2023-04-06T12:27:47;18.90;;;11.63;;
1885;SDS011;943;51.568;6.998;2023-04-06T12:30:15;19.60;;;12.27;;
1885;SDS011;943;51.568;6.998;2023-04-06T12:32:43;21.07;;;14.13;;
1885;SDS011;943;51.568;6.998;2023-04-06T12:35:15;20.23;;;13.77;;
1885;SDS011;943;51.568;6.998;2023-04-06T12:37:43;21.23;;;13.07;;
1885;SDS011;943;51.568;6.998;2023-04-06T12:40:12;21.60;;;13.30;;
1885;SDS011;943;51.568;6.998;2023-04-06T12:42:41;22.10;;;14.93;;
1885;SDS011;943;51.568;6.998;2023-04-06T12:45:09;25.83;;;14.57;;
1885;SDS011;943;51.568;6.998;2023-04-06T12:47:38;24.00;;;14.67;;
1885;SDS011;943;51.568;6.998;2023-04-06T12:50:07;19.27;;;14.57;;
1885;SDS011;943;51.568;6.998;2023-04-06T12:52:36;20.47;;;14.00;;
1885;SDS011;943;51.568;6.998;2023-04-06T12:55:10;25.30;;;15.23;;
1885;SDS011;943;51.568;6.998;2023-04-06T12:57:39;19.80;;;14.00;;
1885;SDS011;943;51.568;6.998;2023-04-06T13:00:08;24.20;;;15.07;;
1885;SDS011;943;51.568;6.998;2023-04-06T13:02:37;24.33;;;13.40;;
1885;SDS011;943;51.568;6.998;2023-04-06T13:05:05;20.50;;;14.10;;
1885;SDS011;943;51.568;6.998;2023-04-06T13:07:34;20.40;;;14.93;;
1885;SDS011;943;51.568;6.998;2023-04-06T13:10:03;22.60;;;15.50;;
1885;SDS011;943;51.568;6.998;2023-04-06T13:12:33;21.33;;;13.83;;
1885;SDS011;943;51.568;6.998;2023-04-06T13:15:01;22.30;;;13.10;;
1885;SDS011;943;51.568;6.998;2023-04-06T13:17:32;19.40;;;13.13;;
1885;SDS011;943;51.568;6.998;2023-04-06T13:20:02;19.70;;;12.87;;
1885;SDS011;943;51.568;6.998;2023-04-06T13:22:32;18.90;;;12.07;;
1885;SDS011;943;51.568;6.998;2023-04-06T13:25:00;21.33;;;13.27;;
1885;SDS011;943;51.568;6.998;2023-04-06T13:27:28;22.13;;;12.77;;
1885;SDS011;943;51.568;6.998;2023-04-06T13:30:00;18.10;;;11.27;;
1885;SDS011;943;51.568;6.998;2023-04-06T13:32:30;18.70;;;12.27;;
1885;SDS011;943;51.568;6.998;2023-04-06T13:34:59;15.73;;;10.43;;
1885;SDS011;943;51.568;6.998;2023-04-06T13:37:28;18.20;;;12.70;;
1885;SDS011;943;51.568;6.998;2023-04-06T13:39:57;16.37;;;10.37;;
1885;SDS011;943;51.568;6.998;2023-04-06T13:42:25;14.63;;;9.60;;
1885;SDS011;943;51.568;6.998;2023-04-06T13:44:55;14.67;;;10.27;;
1885;SDS011;943;51.568;6.998;2023-04-06T13:47:23;19.90;;;10.20;;
1885;SDS011;943;51.568;6.998;2023-04-06T13:49:52;12.73;;;9.20;;
1885;SDS011;943;51.568;6.998;2023-04-06T13:52:23;17.07;;;10.47;;
1885;SDS011;943;51.568;6.998;2023-04-06T13:54:52;15.50;;;10.23;;
1885;SDS011;943;51.568;6.998;2023-04-06T13:57:21;16.23;;;10.50;;
1885;SDS011;943;51.568;6.998;2023-04-06T13:59:49;16.20;;;11.73;;
1885;SDS011;943;51.568;6.998;2023-04-06T14:02:17;21.57;;;11.70;;
1885;SDS011;943;51.568;6.998;2023-04-06T14:04:46;18.07;;;10.80;;
1885;SDS011;943;51.568;6.998;2023-04-06T14:07:14;16.07;;;11.90;;
1885;SDS011;943;51.568;6.998;2023-04-06T14:09:41;18.10;;;11.80;;
1885;SDS011;943;51.568;6.998;2023-04-06T14:12:09;13.57;;;9.97;;
1885;SDS011;943;51.568;6.998;2023-04-06T14:14:38;15.07;;;9.83;;
1885;SDS011;943;51.568;6.998;2023-04-06T14:17:06;15.87;;;10.50;;
1885;SDS011;943;51.568;6.998;2023-04-06T14:19:33;16.23;;;11.30;;
1885;SDS011;943;51.568;6.998;2023-04-06T14:22:02;16.93;;;11.10;;
1885;SDS011;943;51.568;6.998;2023-04-06T14:24:31;14.43;;;11.90;;
1885;SDS011;943;51.568;6.998;2023-04-06T14:26:59;21.80;;;11.87;;
1885;SDS011;943;51.568;6.998;2023-04-06T14:29:29;17.40;;;10.17;;
1885;SDS011;943;51.568;6.998;2023-04-06T14:31:56;12.80;;;9.70;;
1885;SDS011;943;51.568;6.998;2023-04-06T14:34:26;18.27;;;10.00;;
1885;SDS011;943;51.568;6.998;2023-04-06T14:36:54;18.17;;;11.07;;
1885;SDS011;943;51.568;6.998;2023-04-06T14:39:22;17.67;;;10.20;;
1885;SDS011;943;51.568;6.998;2023-04-06T14:41:50;11.67;;;8.43;;
1885;SDS011;943;51.568;6.998;2023-04-06T14:44:18;13.47;;;8.23;;
1885;SDS011;943;51.568;6.998;2023-04-06T14:46:47;15.10;;;10.77;;
1885;SDS011;943;51.568;6.998;2023-04-06T14:49:15;13.83;;;9.30;;
1885;SDS011;943;51.568;6.998;2023-04-06T14:51:43;14.77;;;9.33;;
1885;SDS011;943;51.568;6.998;2023-04-06T14:54:11;15.00;;;9.67;;
1885;SDS011;943;51.568;6.998;2023-04-06T14:56:39;15.33;;;10.40;;
1885;SDS011;943;51.568;6.998;2023-04-06T14:59:07;14.43;;;9.20;;
1885;SDS011;943;51.568;6.998;2023-04-06T15:01:35;14.30;;;11.37;;
1885;SDS011;943;51.568;6.998;2023-04-06T15:04:04;14.90;;;9.80;;
1885;SDS011;943;51.568;6.998;2023-04-06T15:06:32;12.70;;;9.07;;
1885;SDS011;943;51.568;6.998;2023-04-06T15:09:00;13.77;;;9.63;;
1885;SDS011;943;51.568;6.998;2023-04-06T15:11:29;13.40;;;8.87;;
1885;SDS011;943;51.568;6.998;2023-04-06T15:13:56;14.23;;;10.40;;
1885;SDS011;943;51.568;6.998;2023-04-06T15:16:25;13.77;;;9.87;;
1885;SDS011;943;51.568;6.998;2023-04-06T15:18:53;14.60;;;10.37;;
1885;SDS011;943;51.568;6.998;2023-04-06T15:21:21;14.93;;;9.77;;
1885;SDS011;943;51.568;6.998;2023-04-06T15:23:49;15.10;;;11.23;;
1885;SDS011;943;51.568;6.998;2023-04-06T15:26:17;16.50;;;10.87;;